createdAt,value
2016-10-20T00:00:31.350Z,1001.94
2016-10-20T00:01:31.352Z,1001.92
2016-10-20T00:02:31.443Z,1001.95
2016-10-20T00:03:31.346Z,1001.96
2016-10-20T00:04:31.421Z,1001.96
2016-10-20T00:05:31.588Z,1001.95
2016-10-20T00:06:31.749Z,1001.97
2016-10-20T00:07:31.465Z,1001.97
2016-10-20T00:08:31.487Z,1001.95
2016-10-20T00:09:31.778Z,1001.91
2016-10-20T00:10:31.595Z,1001.96
2016-10-20T00:11:31.720Z,1001.89
2016-10-20T00:12:31.522Z,1001.86
2016-10-20T00:13:31.584Z,1001.92
2016-10-20T00:14:31.666Z,1001.91
2016-10-20T00:15:31.860Z,1001.9
2016-10-20T00:16:31.964Z,1001.94
2016-10-20T00:17:31.995Z,1001.9
2016-10-20T00:18:31.692Z,1001.9
2016-10-20T00:19:32.045Z,1001.84
2016-10-20T00:20:31.670Z,1001.88
2016-10-20T00:21:31.685Z,1001.89
2016-10-20T00:22:31.692Z,1001.84
2016-10-20T00:23:32.004Z,1001.89
2016-10-20T00:24:31.607Z,1001.87
2016-10-20T00:25:31.627Z,1001.87
2016-10-20T00:26:31.861Z,1001.86
2016-10-20T00:27:31.564Z,1001.88
2016-10-20T00:28:31.744Z,1001.87
2016-10-20T00:29:31.684Z,1001.87
2016-10-20T00:30:31.617Z,1001.84
2016-10-20T00:31:31.867Z,1001.83
2016-10-20T00:32:31.614Z,1001.83
2016-10-20T00:33:31.623Z,1001.8
2016-10-20T00:34:32.012Z,1001.81
2016-10-20T00:35:31.702Z,1001.81
2016-10-20T00:36:31.703Z,1001.8
2016-10-20T00:37:31.995Z,1001.82
2016-10-20T00:38:31.891Z,1001.79
2016-10-20T00:39:31.803Z,1001.81
2016-10-20T00:40:31.996Z,1001.84
2016-10-20T00:41:31.753Z,1001.75
2016-10-20T00:42:32.018Z,1001.8
2016-10-20T00:43:32.385Z,1001.81
2016-10-20T00:44:31.977Z,1001.81
2016-10-20T00:45:31.956Z,1001.82
2016-10-20T00:46:32.417Z,1001.83
2016-10-20T00:47:31.960Z,1001.84
2016-10-20T00:48:32.006Z,1001.79
2016-10-20T00:49:31.948Z,1001.77
2016-10-20T00:50:31.963Z,1001.78
2016-10-20T00:51:31.911Z,1001.76
2016-10-20T00:52:32.160Z,1001.78
2016-10-20T00:53:31.929Z,1001.76
2016-10-20T00:54:31.926Z,1001.74
2016-10-20T00:55:32.161Z,1001.77
2016-10-20T00:56:32.186Z,1001.77
2016-10-20T00:57:32.289Z,1001.75
2016-10-20T00:58:32.103Z,1001.79
2016-10-20T00:59:32.147Z,1001.75
2016-10-20T01:00:32.395Z,1001.82
2016-10-20T01:01:32.312Z,1001.82
2016-10-20T01:02:32.344Z,1001.83
2016-10-20T01:03:32.426Z,1001.79
2016-10-20T01:04:32.179Z,1001.78
2016-10-20T01:05:32.544Z,1001.76
2016-10-20T01:06:32.268Z,1001.81
2016-10-20T01:07:32.322Z,1001.77
2016-10-20T01:08:32.111Z,1001.79
2016-10-20T01:09:32.286Z,1001.78
2016-10-20T01:10:32.181Z,1001.77
2016-10-20T01:11:32.147Z,1001.78
2016-10-20T01:12:32.280Z,1001.82
2016-10-20T01:13:32.469Z,1001.78
2016-10-20T01:14:32.241Z,1001.81
2016-10-20T01:15:32.332Z,1001.81
2016-10-20T01:16:32.361Z,1001.8
2016-10-20T01:17:32.586Z,1001.78
2016-10-20T01:18:32.561Z,1001.77
2016-10-20T01:19:32.597Z,1001.79
2016-10-20T01:20:32.591Z,1001.8
2016-10-20T01:21:32.316Z,1001.79
2016-10-20T01:22:32.499Z,1001.77
2016-10-20T01:23:32.512Z,1001.75
2016-10-20T01:24:32.598Z,1001.76
2016-10-20T01:25:32.682Z,1001.8
2016-10-20T01:26:32.857Z,1001.75
2016-10-20T01:27:33.139Z,1001.75
2016-10-20T01:28:32.846Z,1001.73
2016-10-20T01:29:32.653Z,1001.75
2016-10-20T01:30:32.739Z,1001.72
2016-10-20T01:31:32.554Z,1001.73
2016-10-20T01:32:32.574Z,1001.72
2016-10-20T01:33:33.042Z,1001.69
2016-10-20T01:34:32.518Z,1001.7
2016-10-20T01:35:32.710Z,1001.73
2016-10-20T01:36:32.581Z,1001.69
2016-10-20T01:37:33.043Z,1001.72
2016-10-20T01:38:32.676Z,1001.69
2016-10-20T01:39:32.948Z,1001.68
2016-10-20T01:40:32.882Z,1001.66
2016-10-20T01:41:32.947Z,1001.7
2016-10-20T01:42:32.907Z,1001.68
2016-10-20T01:43:32.916Z,1001.67
2016-10-20T01:44:32.808Z,1001.66
2016-10-20T01:45:33.235Z,1001.67
2016-10-20T01:46:32.979Z,1001.67
2016-10-20T01:47:32.854Z,1001.66
2016-10-20T01:48:32.927Z,1001.67
2016-10-20T01:49:33.158Z,1001.67
2016-10-20T01:50:32.863Z,1001.64
2016-10-20T01:51:32.925Z,1001.63
2016-10-20T01:52:32.904Z,1001.63
2016-10-20T01:53:32.847Z,1001.6
2016-10-20T01:54:33.249Z,1001.58
2016-10-20T01:55:33.067Z,1001.58
2016-10-20T01:56:33.069Z,1001.58
2016-10-20T01:57:33.234Z,1001.62
2016-10-20T01:58:32.969Z,1001.6
2016-10-20T01:59:33.253Z,1001.55
2016-10-20T02:00:33.306Z,1001.54
2016-10-20T02:01:33.205Z,1001.56
2016-10-20T02:02:33.073Z,1001.56
2016-10-20T02:03:33.550Z,1001.59
2016-10-20T02:04:33.181Z,1001.53
2016-10-20T02:05:33.642Z,1001.53
2016-10-20T02:06:33.444Z,1001.58
2016-10-20T02:07:33.207Z,1001.55
2016-10-20T02:08:33.197Z,1001.56
2016-10-20T02:09:33.224Z,1001.57
2016-10-20T02:10:33.238Z,1001.55
2016-10-20T02:11:33.329Z,1001.53
2016-10-20T02:12:33.235Z,1001.52
2016-10-20T02:13:33.432Z,1001.54
2016-10-20T02:14:33.226Z,1001.47
2016-10-20T02:15:33.271Z,1001.49
2016-10-20T02:16:33.443Z,1001.48
2016-10-20T02:17:33.387Z,1001.47
2016-10-20T02:18:33.559Z,1001.45
2016-10-20T02:19:33.342Z,1001.45
2016-10-20T02:20:33.661Z,1001.45
2016-10-20T02:21:33.551Z,1001.47
2016-10-20T02:22:33.432Z,1001.46
2016-10-20T02:23:33.561Z,1001.45
2016-10-20T02:24:33.569Z,1001.48
2016-10-20T02:25:33.410Z,1001.44
2016-10-20T02:26:33.492Z,1001.45
2016-10-20T02:27:33.427Z,1001.45
2016-10-20T02:28:33.893Z,1001.38
2016-10-20T02:29:33.912Z,1001.45
2016-10-20T02:30:33.495Z,1001.42
2016-10-20T02:31:33.467Z,1001.38
2016-10-20T02:32:33.957Z,1001.4
2016-10-20T02:33:33.629Z,1001.44
2016-10-20T02:34:33.778Z,1001.43
2016-10-20T02:35:33.880Z,1001.43
2016-10-20T02:36:33.623Z,1001.42
2016-10-20T02:37:33.549Z,1001.44
2016-10-20T02:38:33.933Z,1001.43
2016-10-20T02:39:33.668Z,1001.47
2016-10-20T02:40:33.773Z,1001.43
2016-10-20T02:41:33.802Z,1001.42
2016-10-20T02:42:33.856Z,1001.42
2016-10-20T02:43:34.134Z,1001.37
2016-10-20T02:44:34.052Z,1001.39
2016-10-20T02:45:33.880Z,1001.41
2016-10-20T02:46:33.943Z,1001.39
2016-10-20T02:47:34.073Z,1001.39
2016-10-20T02:48:33.812Z,1001.38
2016-10-20T02:49:33.846Z,1001.41
2016-10-20T02:50:34.100Z,1001.41
2016-10-20T02:51:34.082Z,1001.37
2016-10-20T02:52:33.856Z,1001.36
2016-10-20T02:53:33.994Z,1001.37
2016-10-20T02:54:33.821Z,1001.38
2016-10-20T02:55:34.025Z,1001.34
2016-10-20T02:56:34.120Z,1001.35
2016-10-20T02:57:34.025Z,1001.35
2016-10-20T02:58:33.910Z,1001.32
2016-10-20T02:59:33.941Z,1001.32
2016-10-20T03:00:34.119Z,1001.3
2016-10-20T03:01:34.198Z,1001.31
2016-10-20T03:02:34.162Z,1001.3
2016-10-20T03:03:34.071Z,1001.32
2016-10-20T03:04:34.124Z,1001.29
2016-10-20T03:05:34.089Z,1001.27
2016-10-20T03:06:34.099Z,1001.3
2016-10-20T03:07:34.415Z,1001.28
2016-10-20T03:08:34.208Z,1001.3
2016-10-20T03:09:34.051Z,1001.28
2016-10-20T03:10:34.147Z,1001.26
2016-10-20T03:11:34.142Z,1001.26
2016-10-20T03:12:34.279Z,1001.28
2016-10-20T03:13:34.167Z,1001.26
2016-10-20T03:14:34.632Z,1001.29
2016-10-20T03:15:34.340Z,1001.28
2016-10-20T03:16:34.525Z,1001.28
2016-10-20T03:17:34.364Z,1001.26
2016-10-20T03:18:34.369Z,1001.26
2016-10-20T03:19:34.787Z,1001.25
2016-10-20T03:20:34.476Z,1001.26
2016-10-20T03:21:34.477Z,1001.25
2016-10-20T03:22:34.480Z,1001.26
2016-10-20T03:23:34.516Z,1001.21
2016-10-20T03:24:34.461Z,1001.24
2016-10-20T03:25:34.796Z,1001.21
2016-10-20T03:26:34.441Z,1001.18
2016-10-20T03:27:34.492Z,1001.22
2016-10-20T03:28:34.505Z,1001.24
2016-10-20T03:29:34.396Z,1001.2
2016-10-20T03:30:34.741Z,1001.22
2016-10-20T03:31:34.673Z,1001.22
2016-10-20T03:32:34.536Z,1001.24
2016-10-20T03:33:34.991Z,1001.19
2016-10-20T03:34:34.637Z,1001.21
2016-10-20T03:35:34.718Z,1001.21
2016-10-20T03:36:34.765Z,1001.22
2016-10-20T03:37:34.793Z,1001.21
2016-10-20T03:38:34.777Z,1001.24
2016-10-20T03:39:34.752Z,1001.26
2016-10-20T03:40:34.657Z,1001.2
2016-10-20T03:41:34.833Z,1001.19
2016-10-20T03:42:34.650Z,1001.17
2016-10-20T03:43:34.812Z,1001.22
2016-10-20T03:44:34.683Z,1001.21
2016-10-20T03:45:34.649Z,1001.17
2016-10-20T03:46:34.771Z,1001.2
2016-10-20T03:47:34.826Z,1001.19
2016-10-20T03:48:34.694Z,1001.16
2016-10-20T03:49:34.714Z,1001.17
2016-10-20T03:50:35.201Z,1001.19
2016-10-20T03:51:34.927Z,1001.16
2016-10-20T03:52:34.880Z,1001.19
2016-10-20T03:53:34.851Z,1001.17
2016-10-20T03:54:35.346Z,1001.16
2016-10-20T03:55:35.310Z,1001.18
2016-10-20T03:56:34.952Z,1001.17
2016-10-20T03:57:35.203Z,1001.22
2016-10-20T03:58:35.106Z,1001.19
2016-10-20T03:59:35.060Z,1001.22
2016-10-20T04:00:35.388Z,1001.18
2016-10-20T04:01:35.127Z,1001.23
2016-10-20T04:02:35.421Z,1001.17
2016-10-20T04:03:35.425Z,1001.17
2016-10-20T04:04:35.128Z,1001.16
2016-10-20T04:05:35.418Z,1001.19
2016-10-20T04:06:35.183Z,1001.19
2016-10-20T04:07:35.370Z,1001.2
2016-10-20T04:08:35.101Z,1001.15
2016-10-20T04:09:34.998Z,1001.15
2016-10-20T04:10:35.340Z,1001.18
2016-10-20T04:11:35.138Z,1001.18
2016-10-20T04:12:35.198Z,1001.15
2016-10-20T04:13:35.259Z,1001.17
2016-10-20T04:14:35.315Z,1001.22
2016-10-20T04:15:35.670Z,1001.16
2016-10-20T04:16:35.201Z,1001.19
2016-10-20T04:17:35.328Z,1001.2
2016-10-20T04:18:35.448Z,1001.19
2016-10-20T04:19:35.305Z,1001.2
2016-10-20T04:20:35.546Z,1001.23
2016-10-20T04:21:35.445Z,1001.25
2016-10-20T04:22:35.327Z,1001.22
2016-10-20T04:23:35.507Z,1001.22
2016-10-20T04:24:35.267Z,1001.24
2016-10-20T04:25:35.525Z,1001.21
2016-10-20T04:26:35.629Z,1001.24
2016-10-20T04:27:35.572Z,1001.22
2016-10-20T04:28:35.468Z,1001.25
2016-10-20T04:29:35.564Z,1001.28
2016-10-20T04:30:35.849Z,1001.25
2016-10-20T04:31:36.078Z,1001.24
2016-10-20T04:32:35.830Z,1001.22
2016-10-20T04:33:35.710Z,1001.24
2016-10-20T04:34:35.570Z,1001.26
2016-10-20T04:35:35.742Z,1001.26
2016-10-20T04:36:35.661Z,1001.26
2016-10-20T04:37:36.001Z,1001.25
2016-10-20T04:38:35.648Z,1001.28
2016-10-20T04:39:35.807Z,1001.28
2016-10-20T04:40:35.591Z,1001.25
2016-10-20T04:41:35.890Z,1001.25
2016-10-20T04:42:35.713Z,1001.26
2016-10-20T04:43:35.852Z,1001.29
2016-10-20T04:44:36.068Z,1001.25
2016-10-20T04:45:35.887Z,1001.22
2016-10-20T04:46:36.140Z,1001.22
2016-10-20T04:47:36.067Z,1001.21
2016-10-20T04:48:35.702Z,1001.24
2016-10-20T04:49:36.409Z,1001.23
2016-10-20T04:50:35.980Z,1001.22
2016-10-20T04:51:36.032Z,1001.22
2016-10-20T04:52:36.092Z,1001.22
2016-10-20T04:53:36.101Z,1001.2
2016-10-20T04:54:35.944Z,1001.18
2016-10-20T04:55:36.081Z,1001.18
2016-10-20T04:56:36.158Z,1001.17
2016-10-20T04:57:35.956Z,1001.18
2016-10-20T04:58:36.009Z,1001.19
2016-10-20T04:59:35.912Z,1001.22
2016-10-20T05:00:36.049Z,1001.22
2016-10-20T05:01:36.637Z,1001.2
2016-10-20T05:02:36.198Z,1001.22
2016-10-20T05:03:36.146Z,1001.22
2016-10-20T05:04:36.289Z,1001.19
2016-10-20T05:05:36.439Z,1001.21
2016-10-20T05:06:36.022Z,1001.23
2016-10-20T05:07:36.674Z,1001.2
2016-10-20T05:08:36.924Z,1001.23
2016-10-20T05:09:36.592Z,1001.25
2016-10-20T05:10:36.435Z,1001.24
2016-10-20T05:11:36.263Z,1001.24
2016-10-20T05:12:36.121Z,1001.25
2016-10-20T05:13:36.104Z,1001.23
2016-10-20T05:14:36.418Z,1001.25
2016-10-20T05:15:36.566Z,1001.24
2016-10-20T05:16:36.697Z,1001.25
2016-10-20T05:17:36.522Z,1001.27
2016-10-20T05:18:36.734Z,1001.25
2016-10-20T05:19:36.636Z,1001.27
2016-10-20T05:20:36.743Z,1001.27
2016-10-20T05:21:36.513Z,1001.31
2016-10-20T05:22:36.674Z,1001.32
2016-10-20T05:23:36.699Z,1001.33
2016-10-20T05:24:36.291Z,1001.32
2016-10-20T05:25:36.189Z,1001.32
2016-10-20T05:26:36.650Z,1001.39
2016-10-20T05:27:36.662Z,1001.33
2016-10-20T05:28:36.563Z,1001.35
2016-10-20T05:29:36.928Z,1001.35
2016-10-20T05:30:36.776Z,1001.34
2016-10-20T05:31:36.744Z,1001.34
2016-10-20T05:32:36.701Z,1001.33
2016-10-20T05:33:36.458Z,1001.35
2016-10-20T05:34:37.137Z,1001.32
2016-10-20T05:35:36.924Z,1001.33
2016-10-20T05:36:36.899Z,1001.35
2016-10-20T05:37:36.840Z,1001.34
2016-10-20T05:38:36.861Z,1001.3
2016-10-20T05:39:37.023Z,1001.36
2016-10-20T05:41:36.685Z,1001.38
2016-10-20T05:42:36.761Z,1001.39
2016-10-20T05:43:36.758Z,1001.36
2016-10-20T05:44:36.588Z,1001.36
2016-10-20T05:45:37.082Z,1001.38
2016-10-20T05:46:37.068Z,1001.4
2016-10-20T05:47:36.835Z,1001.39
2016-10-20T05:48:37.379Z,1001.38
2016-10-20T05:49:37.207Z,1001.41
2016-10-20T05:50:37.095Z,1001.43
2016-10-20T05:51:37.297Z,1001.4
2016-10-20T05:52:36.915Z,1001.42
2016-10-20T05:53:37.144Z,1001.41
2016-10-20T05:54:37.415Z,1001.41
2016-10-20T05:55:37.218Z,1001.4
2016-10-20T05:56:37.359Z,1001.39
2016-10-20T05:57:37.513Z,1001.37
2016-10-20T05:58:37.597Z,1001.42
2016-10-20T05:59:37.385Z,1001.38
2016-10-20T06:00:37.198Z,1001.42
2016-10-20T06:01:37.155Z,1001.42
2016-10-20T06:02:37.281Z,1001.44
2016-10-20T06:03:37.127Z,1001.45
2016-10-20T06:04:37.298Z,1001.42
2016-10-20T06:05:37.139Z,1001.45
2016-10-20T06:06:37.086Z,1001.44
2016-10-20T06:07:37.522Z,1001.42
2016-10-20T06:08:37.424Z,1001.45
2016-10-20T06:09:37.306Z,1001.5
2016-10-20T06:10:37.247Z,1001.43
2016-10-20T06:11:37.127Z,1001.43
2016-10-20T06:12:37.320Z,1001.43
2016-10-20T06:13:37.098Z,1001.45
2016-10-20T06:14:37.490Z,1001.44
2016-10-20T06:15:37.418Z,1001.42
2016-10-20T06:16:37.274Z,1001.45
2016-10-20T06:17:37.474Z,1001.48
2016-10-20T06:18:37.226Z,1001.45
2016-10-20T06:19:37.433Z,1001.48
2016-10-20T06:20:37.642Z,1001.5
2016-10-20T06:21:37.119Z,1001.52
2016-10-20T06:22:37.253Z,1001.49
2016-10-20T06:23:37.334Z,1001.51
2016-10-20T06:24:37.394Z,1001.53
2016-10-20T06:25:37.261Z,1001.51
2016-10-20T06:26:37.324Z,1001.52
2016-10-20T06:27:37.364Z,1001.53
2016-10-20T06:28:37.368Z,1001.5
2016-10-20T06:29:37.568Z,1001.54
2016-10-20T06:30:37.709Z,1001.52
2016-10-20T06:31:38.186Z,1001.56
2016-10-20T06:32:37.552Z,1001.56
2016-10-20T06:33:37.672Z,1001.58
2016-10-20T06:34:37.487Z,1001.6
2016-10-20T06:35:37.526Z,1001.59
2016-10-20T06:36:37.626Z,1001.61
2016-10-20T06:37:37.564Z,1001.61
2016-10-20T06:38:37.586Z,1001.58
2016-10-20T06:39:37.729Z,1001.6
2016-10-20T06:40:37.562Z,1001.6
2016-10-20T06:41:37.730Z,1001.58
2016-10-20T06:42:37.722Z,1001.61
2016-10-20T06:43:37.563Z,1001.65
2016-10-20T06:44:37.548Z,1001.67
2016-10-20T06:45:37.582Z,1001.66
2016-10-20T06:46:37.550Z,1001.58
2016-10-20T06:47:37.766Z,1001.59
2016-10-20T06:48:37.729Z,1001.6
2016-10-20T06:49:37.770Z,1001.64
2016-10-20T06:50:37.637Z,1001.65
2016-10-20T06:51:37.791Z,1001.67
2016-10-20T06:52:38.244Z,1001.7
2016-10-20T06:53:37.796Z,1001.67
2016-10-20T06:54:37.884Z,1001.69
2016-10-20T06:55:37.828Z,1001.72
2016-10-20T06:56:37.813Z,1001.67
2016-10-20T06:57:37.904Z,1001.69
2016-10-20T06:58:37.860Z,1001.7
2016-10-20T06:59:37.949Z,1001.69
2016-10-20T07:00:38.027Z,1001.74
2016-10-20T07:01:37.799Z,1001.7
2016-10-20T07:02:38.304Z,1001.71
2016-10-20T07:03:37.944Z,1001.7
2016-10-20T07:04:38.212Z,1001.73
2016-10-20T07:05:38.188Z,1001.72
2016-10-20T07:06:38.263Z,1001.74
2016-10-20T07:07:38.475Z,1001.76
2016-10-20T07:08:38.054Z,1001.72
2016-10-20T07:09:38.073Z,1001.75
2016-10-20T07:10:38.116Z,1001.77
2016-10-20T07:11:38.415Z,1001.73
2016-10-20T07:12:38.368Z,1001.77
2016-10-20T07:13:38.176Z,1001.77
2016-10-20T07:14:38.444Z,1001.79
2016-10-20T07:15:38.303Z,1001.77
2016-10-20T07:16:38.151Z,1001.8
2016-10-20T07:17:38.209Z,1001.82
2016-10-20T07:18:38.261Z,1001.78
2016-10-20T07:19:38.114Z,1001.75
2016-10-20T07:20:38.352Z,1001.76
2016-10-20T07:21:38.430Z,1001.82
2016-10-20T07:22:38.438Z,1001.83
2016-10-20T07:23:38.417Z,1001.79
2016-10-20T07:24:38.296Z,1001.78
2016-10-20T07:25:38.574Z,1001.79
2016-10-20T07:26:38.517Z,1001.79
2016-10-20T07:27:38.247Z,1001.73
2016-10-20T07:28:38.278Z,1001.78
2016-10-20T07:29:38.485Z,1001.78
2016-10-20T07:30:38.350Z,1001.8
2016-10-20T07:31:38.637Z,1001.78
2016-10-20T07:32:38.309Z,1001.82
2016-10-20T07:33:38.617Z,1001.83
2016-10-20T07:34:38.669Z,1001.84
2016-10-20T07:35:38.407Z,1001.87
2016-10-20T07:36:38.468Z,1001.9
2016-10-20T07:37:38.509Z,1001.91
2016-10-20T07:38:38.593Z,1001.88
2016-10-20T07:39:38.770Z,1001.93
2016-10-20T07:40:38.507Z,1001.9
2016-10-20T07:41:38.586Z,1001.94
2016-10-20T07:42:38.731Z,1001.93
2016-10-20T07:43:38.523Z,1001.95
2016-10-20T07:44:38.586Z,1001.95
2016-10-20T07:45:38.548Z,1001.98
2016-10-20T07:46:38.578Z,1001.99
2016-10-20T07:47:38.649Z,1001.97
2016-10-20T07:48:38.952Z,1001.95
2016-10-20T07:49:39.053Z,1001.96
2016-10-20T07:50:38.686Z,1001.94
2016-10-20T07:51:39.019Z,1001.93
2016-10-20T07:52:38.781Z,1001.96
2016-10-20T07:53:39.127Z,1001.96
2016-10-20T07:54:38.931Z,1001.96
2016-10-20T07:55:38.799Z,1001.94
2016-10-20T07:56:38.797Z,1001.91
2016-10-20T07:57:38.932Z,1001.99
2016-10-20T07:58:39.032Z,1001.95
2016-10-20T07:59:38.878Z,1001.98
2016-10-20T08:00:38.909Z,1001.95
2016-10-20T08:01:38.913Z,1001.96
2016-10-20T08:02:38.999Z,1001.99
2016-10-20T08:03:38.907Z,1001.98
2016-10-20T08:04:38.985Z,1001.99
2016-10-20T08:05:39.038Z,1002
2016-10-20T08:06:39.008Z,1001.99
2016-10-20T08:07:39.149Z,1002
2016-10-20T08:08:38.971Z,1002.02
2016-10-20T08:09:39.099Z,1002.02
2016-10-20T08:10:38.978Z,1001.98
2016-10-20T08:11:39.062Z,1002.03
2016-10-20T08:12:39.128Z,1002.01
2016-10-20T08:13:38.963Z,1002.02
2016-10-20T08:14:39.058Z,1002.05
2016-10-20T08:15:39.228Z,1002.03
2016-10-20T08:16:39.395Z,1002.03
2016-10-20T08:17:39.264Z,1002.06
2016-10-20T08:18:39.121Z,1002.06
2016-10-20T08:19:39.161Z,1002.08
2016-10-20T08:20:39.201Z,1002.11
2016-10-20T08:21:39.280Z,1002.08
2016-10-20T08:22:39.349Z,1002.05
2016-10-20T08:23:39.489Z,1002.14
2016-10-20T08:24:39.354Z,1002.09
2016-10-20T08:25:39.474Z,1002.08
2016-10-20T08:26:39.664Z,1002.11
2016-10-20T08:27:39.321Z,1002.11
2016-10-20T08:28:39.279Z,1002.13
2016-10-20T08:29:39.559Z,1002.1
2016-10-20T08:30:39.439Z,1002.08
2016-10-20T08:31:39.554Z,1002.13
2016-10-20T08:32:39.260Z,1002.11
2016-10-20T08:33:39.411Z,1002.13
2016-10-20T08:34:39.390Z,1002.11
2016-10-20T08:35:39.311Z,1002.13
2016-10-20T08:36:39.593Z,1002.16
2016-10-20T08:37:39.584Z,1002.18
2016-10-20T08:38:39.421Z,1002.2
2016-10-20T08:39:39.385Z,1002.21
2016-10-20T08:40:39.368Z,1002.2
2016-10-20T08:41:39.542Z,1002.18
2016-10-20T08:42:39.905Z,1002.19
2016-10-20T08:43:39.705Z,1002.18
2016-10-20T08:44:39.673Z,1002.21
2016-10-20T08:45:39.669Z,1002.17
2016-10-20T08:46:39.637Z,1002.2
2016-10-20T08:47:39.608Z,1002.2
2016-10-20T08:48:39.609Z,1002.21
2016-10-20T08:49:39.738Z,1002.23
2016-10-20T08:50:39.778Z,1002.24
2016-10-20T08:51:40.061Z,1002.25
2016-10-20T08:52:39.988Z,1002.24
2016-10-20T08:53:39.636Z,1002.28
2016-10-20T08:54:39.777Z,1002.31
2016-10-20T08:55:39.620Z,1002.3
2016-10-20T08:56:40.222Z,1002.32
2016-10-20T08:57:39.887Z,1002.32
2016-10-20T08:58:39.831Z,1002.29
2016-10-20T08:59:40.150Z,1002.34
2016-10-20T09:00:39.752Z,1002.33
2016-10-20T09:01:39.934Z,1002.32
2016-10-20T09:02:39.997Z,1002.31
2016-10-20T09:03:40.164Z,1002.31
2016-10-20T09:04:40.228Z,1002.27
2016-10-20T09:05:40.131Z,1002.33
2016-10-20T09:06:39.969Z,1002.34
2016-10-20T09:07:39.912Z,1002.36
2016-10-20T09:08:40.089Z,1002.34
2016-10-20T09:09:40.054Z,1002.33
2016-10-20T09:10:40.237Z,1002.35
2016-10-20T09:11:40.378Z,1002.34
2016-10-20T09:12:40.055Z,1002.34
2016-10-20T09:13:39.962Z,1002.33
2016-10-20T09:14:40.191Z,1002.33
2016-10-20T09:15:39.948Z,1002.34
2016-10-20T09:16:40.113Z,1002.28
2016-10-20T09:17:40.062Z,1002.31
2016-10-20T09:18:39.998Z,1002.29
2016-10-20T09:19:40.063Z,1002.3
2016-10-20T09:20:40.150Z,1002.31
2016-10-20T09:21:40.356Z,1002.32
2016-10-20T09:22:40.225Z,1002.36
2016-10-20T09:23:40.265Z,1002.35
2016-10-20T09:24:40.271Z,1002.47
2016-10-20T09:25:40.228Z,1002.49
2016-10-20T09:26:40.401Z,1002.52
2016-10-20T09:27:40.297Z,1002.54
2016-10-20T09:28:40.284Z,1002.52
2016-10-20T09:29:40.221Z,1002.49
2016-10-20T09:30:40.249Z,1002.46
2016-10-20T09:31:40.591Z,1002.43
2016-10-20T09:32:40.273Z,1002.42
2016-10-20T09:33:40.387Z,1002.44
2016-10-20T09:34:40.341Z,1002.44
2016-10-20T09:35:40.414Z,1002.47
2016-10-20T09:36:40.665Z,1002.44
2016-10-20T09:37:40.346Z,1002.47
2016-10-20T09:38:40.370Z,1002.44
2016-10-20T09:39:40.532Z,1002.42
2016-10-20T09:40:40.510Z,1002.39
2016-10-20T09:41:40.474Z,1002.34
2016-10-20T09:42:40.596Z,1002.31
2016-10-20T09:43:40.582Z,1002.33
2016-10-20T09:44:41.147Z,1002.27
2016-10-20T09:45:40.878Z,1002.35
2016-10-20T09:46:40.496Z,1002.33
2016-10-20T09:47:40.566Z,1002.33
2016-10-20T09:48:40.803Z,1002.36
2016-10-20T09:49:40.693Z,1002.36
2016-10-20T09:50:40.788Z,1002.37
2016-10-20T09:51:40.649Z,1002.37
2016-10-20T09:52:40.712Z,1002.36
2016-10-20T09:53:40.767Z,1002.35
2016-10-20T09:54:40.666Z,1002.35
2016-10-20T09:55:40.670Z,1002.33
2016-10-20T09:56:40.734Z,1002.34
2016-10-20T09:57:40.731Z,1002.34
2016-10-20T09:58:40.822Z,1002.37
2016-10-20T09:59:40.839Z,1002.37
2016-10-20T10:00:40.909Z,1002.38
2016-10-20T10:01:40.848Z,1002.42
2016-10-20T10:02:41.087Z,1002.42
2016-10-20T10:03:40.868Z,1002.42
2016-10-20T10:04:40.908Z,1002.36
2016-10-20T10:05:41.041Z,1002.43
2016-10-20T10:06:40.851Z,1002.4
2016-10-20T10:07:40.972Z,1002.42
2016-10-20T10:08:41.105Z,1002.46
2016-10-20T10:09:40.860Z,1002.45
2016-10-20T10:10:41.168Z,1002.49
2016-10-20T10:11:40.924Z,1002.51
2016-10-20T10:12:40.986Z,1002.5
2016-10-20T10:13:40.978Z,1002.51
2016-10-20T10:14:41.304Z,1002.53
2016-10-20T10:15:41.150Z,1002.56
2016-10-20T10:16:41.260Z,1002.58
2016-10-20T10:17:41.172Z,1002.57
2016-10-20T10:18:41.362Z,1002.6
2016-10-20T10:19:41.151Z,1002.63
2016-10-20T10:20:41.372Z,1002.63
2016-10-20T10:21:41.283Z,1002.66
2016-10-20T10:22:41.227Z,1002.61
2016-10-20T10:23:41.226Z,1002.66
2016-10-20T10:24:41.340Z,1002.65
2016-10-20T10:25:41.166Z,1002.66
2016-10-20T10:26:41.379Z,1002.66
2016-10-20T10:27:41.218Z,1002.63
2016-10-20T10:28:41.299Z,1002.63
2016-10-20T10:29:41.450Z,1002.6
2016-10-20T10:30:41.214Z,1002.59
2016-10-20T10:31:41.414Z,1002.54
2016-10-20T10:32:41.392Z,1002.53
2016-10-20T10:33:41.334Z,1002.55
2016-10-20T10:34:41.464Z,1002.56
2016-10-20T10:35:41.477Z,1002.56
2016-10-20T10:36:41.861Z,1002.56
2016-10-20T10:37:41.441Z,1002.52
2016-10-20T10:38:41.509Z,1002.54
2016-10-20T10:39:41.495Z,1002.58
2016-10-20T10:40:41.482Z,1002.54
2016-10-20T10:41:41.581Z,1002.51
2016-10-20T10:42:41.619Z,1002.53
2016-10-20T10:43:41.547Z,1002.57
2016-10-20T10:44:41.553Z,1002.59
2016-10-20T10:45:41.582Z,1002.6
2016-10-20T10:46:41.628Z,1002.57
2016-10-20T10:47:41.696Z,1002.6
2016-10-20T10:48:41.568Z,1002.57
2016-10-20T10:49:41.832Z,1002.55
2016-10-20T10:50:41.782Z,1002.59
2016-10-20T10:51:41.867Z,1002.56
2016-10-20T10:52:41.664Z,1002.55
2016-10-20T10:53:41.667Z,1002.57
2016-10-20T10:54:41.759Z,1002.55
2016-10-20T10:55:41.860Z,1002.51
2016-10-20T10:56:42.218Z,1002.55
2016-10-20T10:57:42.263Z,1002.53
2016-10-20T10:58:41.992Z,1002.56
2016-10-20T10:59:42.220Z,1002.53
2016-10-20T11:00:41.813Z,1002.52
2016-10-20T11:01:41.818Z,1002.51
2016-10-20T11:02:42.281Z,1002.5
2016-10-20T11:03:42.014Z,1002.48
2016-10-20T11:04:41.907Z,1002.49
2016-10-20T11:05:42.155Z,1002.52
2016-10-20T11:06:42.138Z,1002.51
2016-10-20T11:07:42.199Z,1002.5
2016-10-20T11:08:42.089Z,1002.52
2016-10-20T11:09:42.111Z,1002.54
2016-10-20T11:10:42.035Z,1002.52
2016-10-20T11:11:41.939Z,1002.51
2016-10-20T11:12:42.092Z,1002.48
2016-10-20T11:13:42.280Z,1002.53
2016-10-20T11:14:42.410Z,1002.51
2016-10-20T11:15:42.094Z,1002.53
2016-10-20T11:16:42.304Z,1002.47
2016-10-20T11:17:42.312Z,1002.46
2016-10-20T11:18:42.507Z,1002.46
2016-10-20T11:19:42.544Z,1002.44
2016-10-20T11:20:42.168Z,1002.42
2016-10-20T11:21:42.162Z,1002.39
2016-10-20T11:22:42.275Z,1002.41
2016-10-20T11:23:42.215Z,1002.43
2016-10-20T11:24:42.264Z,1002.42
2016-10-20T11:25:42.511Z,1002.41
2016-10-20T11:26:42.652Z,1002.37
2016-10-20T11:27:42.411Z,1002.33
2016-10-20T11:28:42.930Z,1002.31
2016-10-20T11:29:42.509Z,1002.28
2016-10-20T11:30:42.375Z,1002.3
2016-10-20T11:31:42.582Z,1002.27
2016-10-20T11:32:42.552Z,1002.26
2016-10-20T11:33:42.457Z,1002.28
2016-10-20T11:34:42.696Z,1002.3
2016-10-20T11:35:42.465Z,1002.31
2016-10-20T11:36:42.615Z,1002.32
2016-10-20T11:37:42.446Z,1002.29
2016-10-20T11:38:42.641Z,1002.31
2016-10-20T11:39:42.655Z,1002.35
2016-10-20T11:40:42.677Z,1002.28
2016-10-20T11:41:42.615Z,1002.25
2016-10-20T11:42:42.807Z,1002.24
2016-10-20T11:43:42.861Z,1002.19
2016-10-20T11:44:42.614Z,1002.16
2016-10-20T11:45:42.769Z,1002.15
2016-10-20T11:46:42.753Z,1002.15
2016-10-20T11:47:42.737Z,1002.13
2016-10-20T11:48:42.742Z,1002.14
2016-10-20T11:49:42.796Z,1002.12
2016-10-20T11:50:42.877Z,1002.07
2016-10-20T11:51:42.894Z,1002.1
2016-10-20T11:52:42.880Z,1002.06
2016-10-20T11:53:42.770Z,1002.08
2016-10-20T11:54:42.905Z,1002.1
2016-10-20T11:55:43.230Z,1002.08
2016-10-20T11:56:42.902Z,1002.07
2016-10-20T11:57:43.332Z,1002.04
2016-10-20T11:58:42.827Z,1002.03
2016-10-20T11:59:43.431Z,1002.01
2016-10-20T12:00:43.070Z,1002.01
2016-10-20T12:01:42.990Z,1002.01
2016-10-20T12:02:42.966Z,1002.02
2016-10-20T12:03:43.127Z,1002
2016-10-20T12:04:43.390Z,1001.98
2016-10-20T12:05:43.555Z,1001.94
2016-10-20T12:06:43.119Z,1001.92
2016-10-20T12:07:43.248Z,1001.94
2016-10-20T12:08:43.128Z,1001.94
2016-10-20T12:09:43.098Z,1001.91